Del Norte, Colorado
Current Conditions -  °F | °C
As of 6:10 PM on Wednesday 22 Oct 2014 (Local Time) from KRCV Reporting Station
Broken Clouds Broken Clouds  
Wind Chill: 55°   Ceiling: 8000
Heat Index: 55°   Visibility: 10mi
Dew Point: 35°   Wind: 3mph
Humidity: 47%   Direction: 50°NE
Pressure: 30.24"   Gusts: NA
Location:  37.68°N, 106.35°W
Report Text: KRCV 230010Z AUTO 05003KT 10SM SCT060 BKN080 BKN100 13/02 A3024 RMK AO2 T01260015
Loading
Personal Weather Stations






























Interactive Weather Map
Tropical Storm Tracking
New forecast layout! Learn more

10-Day Weather Forecast

Advertisements
Track Severe Weather on mobile